createdAt,value
2023-03-30T00:01:24.427Z,97775.30
2023-03-30T00:03:55.222Z,97772.55
2023-03-30T00:06:24.628Z,97772.10
2023-03-30T00:08:57.107Z,97766.65
2023-03-30T00:11:26.775Z,97767.23
2023-03-30T00:13:55.758Z,97762.42
2023-03-30T00:16:24.584Z,97755.30
2023-03-30T00:18:53.451Z,97758.39
2023-03-30T00:21:22.192Z,97761.68
2023-03-30T00:23:52.143Z,97758.30
2023-03-30T00:26:21.250Z,97754.40
2023-03-30T00:28:50.005Z,97750.83
2023-03-30T00:31:18.825Z,97761.09
2023-03-30T00:33:47.985Z,97753.39
2023-03-30T00:36:17.190Z,97755.06
2023-03-30T00:38:46.448Z,97747.94
2023-03-30T00:41:15.797Z,97743.23
2023-03-30T00:43:57.456Z,97740.98
2023-03-30T00:46:26.530Z,97741.02
2023-03-30T00:48:57.769Z,97732.55
2023-03-30T00:51:27.616Z,97727.23
2023-03-30T00:53:57.707Z,97721.77
2023-03-30T00:56:28.157Z,97714.84
2023-03-30T00:58:57.392Z,97719.02
2023-03-30T01:01:28.823Z,97715.77
2023-03-30T01:03:59.407Z,97714.08
2023-03-30T01:06:29.969Z,97715.83
2023-03-30T01:08:59.602Z,97717.09
2023-03-30T01:11:28.497Z,97719.70
2023-03-30T01:13:59.247Z,97720.70
2023-03-30T01:16:29.400Z,97710.52
2023-03-30T01:18:58.961Z,97710.38
2023-03-30T01:21:48.496Z,97713.67
2023-03-30T01:24:34.749Z,97715.40
2023-03-30T01:27:04.565Z,97714.42
2023-03-30T01:29:37.492Z,97723.11
2023-03-30T01:32:19.984Z,97727.77
2023-03-30T01:34:52.792Z,97725.64
2023-03-30T01:37:29.212Z,97727.27
2023-03-30T01:39:58.295Z,97724.44
2023-03-30T01:42:28.894Z,97716.78
2023-03-30T01:44:59.030Z,97713.45
2023-03-30T01:47:29.348Z,97708.72
2023-03-30T01:49:59.461Z,97704.64
2023-03-30T01:52:30.460Z,97705.22
2023-03-30T01:55:00.323Z,97707.69
2023-03-30T01:57:30.702Z,97704.77
2023-03-30T02:00:00.200Z,97701.11
2023-03-30T02:02:29.440Z,97711.08
2023-03-30T02:04:59.426Z,97706.38
2023-03-30T02:07:29.412Z,97698.60
2023-03-30T02:09:59.251Z,97698.60
2023-03-30T02:12:30.069Z,97695.42
2023-03-30T02:14:59.113Z,97708.70
2023-03-30T02:17:28.224Z,97709.43
2023-03-30T02:19:59.147Z,97715.35
2023-03-30T02:22:29.548Z,97720.21
2023-03-30T02:24:59.061Z,97723.06
2023-03-30T02:27:28.545Z,97721.30
2023-03-30T02:29:57.345Z,97716.51
2023-03-30T02:32:27.712Z,97720.16
2023-03-30T02:35:04.495Z,97712.40
2023-03-30T02:37:51.083Z,97707.23
2023-03-30T02:40:25.721Z,97704.86
2023-03-30T02:42:59.882Z,97700.42
2023-03-30T02:45:32.032Z,97699.82
2023-03-30T02:48:04.840Z,97701.23
2023-03-30T02:50:34.610Z,97684.84
2023-03-30T02:53:07.859Z,97677.84
2023-03-30T02:55:39.945Z,97677.02
2023-03-30T02:58:21.392Z,97681.52
2023-03-30T03:01:02.233Z,97683.46
2023-03-30T03:03:41.311Z,97701.38
2023-03-30T03:06:11.670Z,97716.38
2023-03-30T03:08:47.915Z,97722.18
2023-03-30T03:11:20.970Z,97725.41
2023-03-30T03:13:49.904Z,97734.87
2023-03-30T03:16:18.801Z,97731.94
2023-03-30T03:19:00.105Z,97733.39
2023-03-30T03:21:28.888Z,97736.13
2023-03-30T03:23:57.765Z,97725.31
2023-03-30T03:26:28.119Z,97724.45
2023-03-30T03:28:56.850Z,97738.58
2023-03-30T03:31:27.102Z,97744.44
2023-03-30T03:33:56.149Z,97733.82
2023-03-30T03:36:33.795Z,97714.78
2023-03-30T03:39:04.994Z,97684.13
2023-03-30T03:41:34.497Z,97664.09
2023-03-30T03:44:03.362Z,97650.19
2023-03-30T03:46:32.535Z,97618.16
2023-03-30T03:49:02.321Z,97604.77
2023-03-30T03:51:32.951Z,97612.46
2023-03-30T03:54:02.205Z,97585.17
2023-03-30T03:56:31.771Z,97612.66
2023-03-30T03:59:03.003Z,97620.92
2023-03-30T04:01:31.823Z,97617.08
2023-03-30T04:04:01.136Z,97621.91
2023-03-30T04:06:29.973Z,97616.66
2023-03-30T04:08:58.918Z,97622.26
2023-03-30T04:11:48.399Z,97629.63
2023-03-30T04:14:28.843Z,97614.48
2023-03-30T04:17:37.026Z,97607.11
2023-03-30T04:20:38.470Z,97597.80
2023-03-30T04:23:49.188Z,97592.10
2023-03-30T04:26:24.566Z,97595.38
2023-03-30T04:29:04.869Z,97602.45
2023-03-30T04:31:42.230Z,97605.18
2023-03-30T04:34:33.075Z,97612.21
2023-03-30T04:37:10.133Z,97607.78
2023-03-30T04:39:51.498Z,97594.40
2023-03-30T04:43:02.288Z,97591.09
2023-03-30T04:45:52.330Z,97583.73
2023-03-30T04:48:37.715Z,97584.81
2023-03-30T04:51:32.520Z,97581.70
2023-03-30T04:54:12.584Z,97572.52
2023-03-30T04:57:07.636Z,97568.23
2023-03-30T04:59:39.797Z,97566.73
2023-03-30T05:02:47.121Z,97577.92
2023-03-30T05:05:21.919Z,97577.55
2023-03-30T05:08:09.320Z,97574.33
2023-03-30T05:11:11.625Z,97587.91
2023-03-30T05:13:53.038Z,97585.92
2023-03-30T05:16:47.213Z,97588.77
2023-03-30T05:19:30.353Z,97589.14
2023-03-30T05:22:34.206Z,97576.56
2023-03-30T05:25:28.894Z,97577.38
2023-03-30T05:28:12.264Z,97592.55
2023-03-30T05:31:01.380Z,97589.59
2023-03-30T05:33:43.808Z,97586.77
2023-03-30T05:36:31.945Z,97588.70
2023-03-30T05:39:09.097Z,97590.94
2023-03-30T05:41:53.792Z,97592.64
2023-03-30T05:44:32.343Z,97600.96
2023-03-30T05:47:22.068Z,97595.67
2023-03-30T05:50:11.451Z,97615.56
2023-03-30T05:52:52.040Z,97613.49
2023-03-30T05:55:27.689Z,97604.81
2023-03-30T05:58:27.428Z,97590.02
2023-03-30T06:01:14.383Z,97593.46
2023-03-30T06:03:44.180Z,97576.96
2023-03-30T06:06:13.614Z,97604.95
2023-03-30T06:08:42.897Z,97626.91
2023-03-30T06:11:14.683Z,97632.07
2023-03-30T06:14:01.590Z,97618.34
2023-03-30T06:16:31.766Z,97616.34
2023-03-30T06:19:01.549Z,97627.81
2023-03-30T06:21:30.455Z,97629.48
2023-03-30T06:24:12.025Z,97620.68
2023-03-30T06:26:41.982Z,97626.11
2023-03-30T06:29:11.027Z,97612.84
2023-03-30T06:31:41.710Z,97621.06
2023-03-30T06:34:30.615Z,97620.89
2023-03-30T06:36:59.689Z,97617.61
2023-03-30T06:39:29.648Z,97623.66
2023-03-30T06:41:58.711Z,97624.77
2023-03-30T06:44:49.763Z,97634.02
2023-03-30T06:47:19.345Z,97632.04
2023-03-30T06:49:48.672Z,97632.06
2023-03-30T06:52:47.154Z,97612.83
2023-03-30T06:55:16.254Z,97598.23
2023-03-30T06:57:45.052Z,97588.35
2023-03-30T07:00:15.469Z,97592.80
2023-03-30T07:02:44.555Z,97591.79
2023-03-30T07:05:24.927Z,97597.72
2023-03-30T07:08:20.089Z,97618.38
2023-03-30T07:10:53.122Z,97630.23
2023-03-30T07:13:22.645Z,97628.09
2023-03-30T07:15:52.332Z,97634.30
2023-03-30T07:18:21.460Z,97639.47
2023-03-30T07:20:51.566Z,97639.80
2023-03-30T07:23:22.612Z,97641.36
2023-03-30T07:25:53.249Z,97637.59
2023-03-30T07:28:26.007Z,97633.69
2023-03-30T07:30:55.005Z,97627.85
2023-03-30T07:33:30.306Z,97615.06
2023-03-30T07:35:59.689Z,97606.42
2023-03-30T07:38:28.670Z,97628.09
2023-03-30T07:40:57.663Z,97633.45
2023-03-30T07:43:27.312Z,97636.34
2023-03-30T07:45:57.272Z,97631.33
2023-03-30T07:48:31.740Z,97631.44
2023-03-30T07:51:04.624Z,97619.20
2023-03-30T07:53:34.929Z,97606.30
2023-03-30T07:56:05.033Z,97611.63
2023-03-30T07:58:43.069Z,97622.48
2023-03-30T08:01:13.302Z,97620.84
2023-03-30T08:04:09.034Z,97619.45
2023-03-30T08:06:38.309Z,97625.98
2023-03-30T08:09:07.083Z,97634.23
2023-03-30T08:11:36.365Z,97643.61
2023-03-30T08:14:05.175Z,97650.16
2023-03-30T08:16:33.965Z,97650.98
2023-03-30T08:19:02.729Z,97654.70
2023-03-30T08:21:31.634Z,97654.15
2023-03-30T08:24:01.084Z,97652.05
2023-03-30T08:26:30.905Z,97651.90
2023-03-30T08:28:59.615Z,97654.32
2023-03-30T08:31:32.695Z,97648.42
2023-03-30T08:34:03.386Z,97658.67
2023-03-30T08:36:32.293Z,97650.02
2023-03-30T08:39:01.149Z,97640.58
2023-03-30T08:41:44.106Z,97640.78
2023-03-30T08:44:14.288Z,97642.90
2023-03-30T08:46:43.063Z,97640.90
2023-03-30T08:49:13.991Z,97636.09
2023-03-30T08:51:43.384Z,97632.93
2023-03-30T08:54:13.361Z,97641.80
2023-03-30T08:56:42.985Z,97637.39
2023-03-30T08:59:14.565Z,97638.39
2023-03-30T09:01:45.003Z,97646.33
2023-03-30T09:04:17.436Z,97634.71
2023-03-30T09:06:47.789Z,97640.61
2023-03-30T09:09:17.472Z,97636.88
2023-03-30T09:11:46.187Z,97644.04
2023-03-30T09:14:16.818Z,97643.66
2023-03-30T09:16:47.904Z,97639.57
2023-03-30T09:19:17.781Z,97630.04
2023-03-30T09:21:46.781Z,97627.73
2023-03-30T09:24:16.780Z,97626.92
2023-03-30T09:26:47.661Z,97626.70
2023-03-30T09:29:17.651Z,97614.08
2023-03-30T09:31:48.276Z,97633.07
2023-03-30T09:34:19.749Z,97642.10
2023-03-30T09:36:49.585Z,97646.13
2023-03-30T09:39:19.825Z,97645.39
2023-03-30T09:41:52.079Z,97641.95
2023-03-30T09:44:22.232Z,97644.23
2023-03-30T09:46:51.008Z,97648.53
2023-03-30T09:49:19.797Z,97643.76
2023-03-30T09:51:56.213Z,97641.05
2023-03-30T09:54:25.052Z,97640.02
2023-03-30T09:56:53.833Z,97639.70
2023-03-30T09:59:23.540Z,97640.56
2023-03-30T10:01:52.284Z,97640.40
2023-03-30T10:04:21.311Z,97634.36
2023-03-30T10:06:50.389Z,97629.44
2023-03-30T10:09:20.484Z,97628.07
2023-03-30T10:11:50.477Z,97635.39
2023-03-30T10:14:23.029Z,97632.97
2023-03-30T10:16:51.739Z,97635.00
2023-03-30T10:19:21.930Z,97630.08
2023-03-30T10:21:50.620Z,97629.67
2023-03-30T10:24:22.781Z,97628.81
2023-03-30T10:26:52.925Z,97625.52
2023-03-30T10:29:22.834Z,97625.68
2023-03-30T10:31:53.053Z,97619.36
2023-03-30T10:34:23.618Z,97610.90
2023-03-30T10:36:54.446Z,97608.15
2023-03-30T10:39:24.692Z,97624.15
2023-03-30T10:41:53.409Z,97628.37
2023-03-30T10:44:23.701Z,97627.59
2023-03-30T10:46:52.924Z,97620.74
2023-03-30T10:49:24.785Z,97615.55
2023-03-30T10:51:56.450Z,97614.73
2023-03-30T10:54:27.204Z,97613.23
2023-03-30T10:56:57.973Z,97605.59
2023-03-30T10:59:30.168Z,97602.23
2023-03-30T11:02:10.789Z,97590.51
2023-03-30T11:04:42.037Z,97590.57
2023-03-30T11:07:12.645Z,97584.36
2023-03-30T11:09:41.688Z,97590.13
2023-03-30T11:12:12.240Z,97591.42
2023-03-30T11:14:42.588Z,97586.16
2023-03-30T11:17:12.734Z,97587.81
2023-03-30T11:19:43.352Z,97590.98
2023-03-30T11:22:13.108Z,97588.73
2023-03-30T11:24:41.930Z,97586.81
2023-03-30T11:27:12.048Z,97574.64
2023-03-30T11:29:42.980Z,97577.91
2023-03-30T11:32:21.881Z,97558.95
2023-03-30T11:34:56.357Z,97565.67
2023-03-30T11:37:29.775Z,97553.05
2023-03-30T11:40:01.235Z,97555.23
2023-03-30T11:42:30.675Z,97545.42
2023-03-30T11:45:00.355Z,97546.54
2023-03-30T11:47:43.184Z,97551.16
2023-03-30T11:50:13.750Z,97546.43
2023-03-30T11:52:44.664Z,97549.75
2023-03-30T11:55:33.413Z,97564.13
2023-03-30T11:58:06.696Z,97565.75
2023-03-30T12:00:42.369Z,97566.30
2023-03-30T12:03:15.062Z,97577.76
2023-03-30T12:05:45.527Z,97587.02
2023-03-30T12:08:19.745Z,97586.52
2023-03-30T12:10:49.024Z,97593.45
2023-03-30T12:13:18.794Z,97596.58
2023-03-30T12:15:48.973Z,97578.04
2023-03-30T12:18:20.051Z,97589.96
2023-03-30T12:20:51.430Z,97581.27
2023-03-30T12:23:23.594Z,97585.19
2023-03-30T12:26:01.197Z,97575.35
2023-03-30T12:29:03.409Z,97568.41
2023-03-30T12:31:44.444Z,97563.34
2023-03-30T12:34:13.362Z,97563.75
2023-03-30T12:36:43.029Z,97553.16
2023-03-30T12:39:15.164Z,97554.32
2023-03-30T12:41:44.682Z,97561.35
2023-03-30T12:44:21.549Z,97584.26
2023-03-30T12:46:58.326Z,97591.16
2023-03-30T12:49:29.870Z,97598.59
2023-03-30T12:52:01.360Z,97605.67
2023-03-30T12:54:42.700Z,97605.62
2023-03-30T12:57:14.338Z,97624.70
2023-03-30T12:59:49.640Z,97657.15
2023-03-30T13:02:27.887Z,97670.89
2023-03-30T13:04:56.654Z,97630.09
2023-03-30T13:07:26.458Z,97626.75
2023-03-30T13:09:56.420Z,97616.34
2023-03-30T13:12:38.931Z,97610.04
2023-03-30T13:15:33.281Z,97595.91
2023-03-30T13:18:02.907Z,97583.43
2023-03-30T13:20:33.930Z,97591.41
2023-03-30T13:23:06.444Z,97581.23
2023-03-30T13:25:42.098Z,97587.94
2023-03-30T13:28:24.399Z,97585.00
2023-03-30T13:30:53.340Z,97582.79
2023-03-30T13:33:22.568Z,97599.23
2023-03-30T13:35:54.653Z,97613.18
2023-03-30T13:38:29.583Z,97618.79
2023-03-30T13:41:05.142Z,97629.95
2023-03-30T13:43:39.997Z,97628.15
2023-03-30T13:46:17.112Z,97652.76
2023-03-30T13:48:51.149Z,97657.98
2023-03-30T13:51:20.833Z,97667.83
2023-03-30T13:53:50.214Z,97648.00
2023-03-30T13:56:19.736Z,97654.58
2023-03-30T13:58:49.586Z,97653.83
2023-03-30T14:01:19.382Z,97650.30
2023-03-30T14:03:50.520Z,97647.70
2023-03-30T14:06:20.948Z,97655.35
2023-03-30T14:08:50.246Z,97662.41
2023-03-30T14:11:19.942Z,97660.16
2023-03-30T14:13:50.715Z,97657.16
2023-03-30T14:16:27.674Z,97639.63
2023-03-30T14:19:09.708Z,97672.09
2023-03-30T14:21:41.137Z,97685.77
2023-03-30T14:24:11.140Z,97689.59
2023-03-30T14:26:43.112Z,97696.52
2023-03-30T14:29:21.301Z,97697.73
2023-03-30T14:32:08.263Z,97700.23
2023-03-30T14:34:39.344Z,97694.68
2023-03-30T14:37:08.861Z,97681.98
2023-03-30T14:39:39.673Z,97675.68
2023-03-30T14:42:10.988Z,97676.41
2023-03-30T14:44:44.792Z,97668.54
2023-03-30T14:47:13.962Z,97659.01
2023-03-30T14:49:43.731Z,97667.35
2023-03-30T14:52:18.683Z,97658.67
2023-03-30T14:55:05.305Z,97648.58
2023-03-30T14:57:40.243Z,97651.80
2023-03-30T15:00:20.035Z,97655.36
2023-03-30T15:02:50.244Z,97658.77
2023-03-30T15:05:20.610Z,97664.45
2023-03-30T15:07:53.943Z,97664.40
2023-03-30T15:10:27.878Z,97663.71
2023-03-30T15:12:58.752Z,97655.70
2023-03-30T15:15:31.785Z,97645.16
2023-03-30T15:18:14.149Z,97649.61
2023-03-30T15:20:45.843Z,97654.42
2023-03-30T15:23:16.319Z,97658.55
2023-03-30T15:25:46.630Z,97660.59
2023-03-30T15:28:19.867Z,97663.38
2023-03-30T15:30:53.060Z,97660.64
2023-03-30T15:33:24.764Z,97655.82
2023-03-30T15:35:55.069Z,97651.87
2023-03-30T15:38:32.399Z,97653.97
2023-03-30T15:41:02.508Z,97653.38
2023-03-30T15:43:34.722Z,97650.38
2023-03-30T15:46:05.973Z,97656.94
2023-03-30T15:48:39.410Z,97653.48
2023-03-30T15:58:18.877Z,97637.96
2023-03-30T16:00:48.493Z,97638.17
2023-03-30T16:03:19.576Z,97631.65
2023-03-30T16:05:48.256Z,97625.52
2023-03-30T16:08:17.606Z,97621.50
2023-03-30T16:10:46.400Z,97623.58
2023-03-30T16:13:15.255Z,97616.73
2023-03-30T16:15:44.443Z,97625.42
2023-03-30T16:18:14.014Z,97617.70
2023-03-30T16:20:44.352Z,97623.39
2023-03-30T16:23:13.465Z,97622.98
2023-03-30T16:25:45.106Z,97616.54
2023-03-30T16:28:16.404Z,97609.64
2023-03-30T16:30:45.898Z,97621.69
2023-03-30T16:33:17.346Z,97618.81
2023-03-30T16:35:46.101Z,97620.11
2023-03-30T16:38:18.246Z,97613.32
2023-03-30T16:40:47.616Z,97613.20
2023-03-30T16:43:16.410Z,97612.54
2023-03-30T16:45:45.613Z,97611.50
2023-03-30T16:48:15.179Z,97610.99
2023-03-30T16:50:44.504Z,97610.86
2023-03-30T16:53:13.514Z,97611.89
2023-03-30T16:55:42.607Z,97616.05
2023-03-30T16:58:13.802Z,97623.77
2023-03-30T17:00:43.577Z,97625.86
2023-03-30T17:03:12.927Z,97636.60
2023-03-30T17:05:46.389Z,97639.08
2023-03-30T17:08:17.486Z,97640.30
2023-03-30T17:10:46.335Z,97642.69
2023-03-30T17:13:15.502Z,97640.23
2023-03-30T17:15:45.176Z,97652.60
2023-03-30T17:18:15.341Z,97650.20
2023-03-30T17:20:47.995Z,97664.70
2023-03-30T17:23:24.380Z,97672.89
2023-03-30T17:25:54.004Z,97671.29
2023-03-30T17:28:23.939Z,97673.02
2023-03-30T17:30:53.553Z,97682.63
2023-03-30T17:33:22.738Z,97678.70
2023-03-30T17:35:52.518Z,97679.35
2023-03-30T17:38:21.875Z,97686.88
2023-03-30T17:40:53.158Z,97683.86
2023-03-30T17:43:22.420Z,97684.94
2023-03-30T17:45:51.546Z,97683.73
2023-03-30T17:48:21.594Z,97682.30
2023-03-30T17:50:50.987Z,97680.46
2023-03-30T17:53:21.692Z,97680.55
2023-03-30T17:55:51.962Z,97674.39
2023-03-30T17:58:22.336Z,97679.41
2023-03-30T18:00:51.475Z,97679.44
2023-03-30T18:03:20.899Z,97682.14
2023-03-30T18:05:50.458Z,97683.65
2023-03-30T18:08:21.475Z,97681.73
2023-03-30T18:10:52.831Z,97684.66
2023-03-30T18:13:21.891Z,97688.83
2023-03-30T18:15:52.320Z,97684.14
2023-03-30T18:18:24.699Z,97684.13
2023-03-30T18:20:54.674Z,97702.38
2023-03-30T18:23:23.923Z,97707.00
2023-03-30T18:25:52.919Z,97707.59
2023-03-30T18:28:23.162Z,97706.30
2023-03-30T18:30:55.544Z,97680.46
2023-03-30T18:33:24.907Z,97720.91
2023-03-30T18:35:54.234Z,97725.21
2023-03-30T18:38:25.124Z,97727.09
2023-03-30T18:40:57.552Z,97723.06
2023-03-30T18:43:26.922Z,97725.98
2023-03-30T18:46:02.846Z,97728.73
2023-03-30T18:48:32.032Z,97727.63
2023-03-30T18:51:00.784Z,97724.63
2023-03-30T18:53:29.737Z,97728.89
2023-03-30T18:56:00.687Z,97723.41
2023-03-30T18:58:30.907Z,97722.39
2023-03-30T19:00:59.952Z,97723.52
2023-03-30T19:03:30.129Z,97721.38
2023-03-30T19:05:59.083Z,97710.71
2023-03-30T19:08:28.690Z,97711.40
2023-03-30T19:10:58.143Z,97705.73
2023-03-30T19:13:27.737Z,97708.39
2023-03-30T19:15:56.490Z,97708.50
2023-03-30T19:18:26.214Z,97710.12
2023-03-30T19:20:55.518Z,97697.16
2023-03-30T19:23:24.520Z,97709.29
2023-03-30T19:25:53.295Z,97709.65
2023-03-30T19:28:22.288Z,97712.84
2023-03-30T19:30:51.245Z,97714.20
2023-03-30T19:33:21.066Z,97714.17
2023-03-30T19:35:49.959Z,97714.77
2023-03-30T19:38:18.979Z,97703.90
2023-03-30T19:40:47.796Z,97707.69
2023-03-30T19:43:16.763Z,97711.27
2023-03-30T19:45:45.638Z,97708.98
2023-03-30T19:48:14.598Z,97710.21
2023-03-30T19:50:43.690Z,97720.00
2023-03-30T19:53:12.417Z,97723.23
2023-03-30T19:55:42.943Z,97725.94
2023-03-30T19:58:12.402Z,97726.85
2023-03-30T20:00:43.408Z,97724.40
2023-03-30T20:03:13.895Z,97717.39
2023-03-30T20:05:48.449Z,97718.61
2023-03-30T20:08:24.292Z,97720.60
2023-03-30T20:10:54.141Z,97724.50
2023-03-30T20:13:24.640Z,97728.17
2023-03-30T20:15:56.104Z,97735.39
2023-03-30T20:18:25.428Z,97727.98
2023-03-30T20:20:54.265Z,97732.98
2023-03-30T20:23:23.242Z,97732.48
2023-03-30T20:25:54.127Z,97725.64
2023-03-30T20:28:23.079Z,97720.05
2023-03-30T20:30:52.074Z,97715.08
2023-03-30T20:33:21.048Z,97719.83
2023-03-30T20:35:52.565Z,97712.00
2023-03-30T20:38:21.501Z,97707.29
2023-03-30T20:40:56.793Z,97710.52
2023-03-30T20:43:26.845Z,97710.15
2023-03-30T20:46:02.322Z,97715.65
2023-03-30T20:48:33.660Z,97713.21
2023-03-30T20:51:03.777Z,97710.91
2023-03-30T20:53:33.799Z,97707.98
2023-03-30T20:56:02.770Z,97709.58
2023-03-30T20:58:31.836Z,97709.31
2023-03-30T21:01:01.641Z,97718.77
2023-03-30T21:03:30.928Z,97717.02
2023-03-30T21:06:03.896Z,97718.45
2023-03-30T21:08:33.388Z,97712.93
2023-03-30T21:11:02.609Z,97714.98
2023-03-30T21:13:31.415Z,97713.39
2023-03-30T21:16:00.354Z,97714.54
2023-03-30T21:18:29.459Z,97708.45
2023-03-30T21:20:58.551Z,97712.88
2023-03-30T21:23:27.368Z,97708.46
2023-03-30T21:25:57.186Z,97704.02
2023-03-30T21:28:27.282Z,97698.47
2023-03-30T21:30:56.802Z,97693.75
2023-03-30T21:33:26.207Z,97695.06
2023-03-30T21:35:55.786Z,97692.89
2023-03-30T21:38:24.828Z,97703.64
2023-03-30T21:40:57.385Z,97699.72
2023-03-30T21:43:26.604Z,97689.55
2023-03-30T21:45:56.067Z,97685.80
2023-03-30T21:48:25.699Z,97672.20
2023-03-30T21:50:59.814Z,97667.03
2023-03-30T21:53:29.295Z,97668.77
2023-03-30T21:55:58.202Z,97670.18
2023-03-30T21:58:27.757Z,97664.02
2023-03-30T22:01:09.060Z,97663.48
2023-03-30T22:03:41.932Z,97656.55
2023-03-30T22:06:11.680Z,97652.08
2023-03-30T22:08:40.603Z,97649.39
2023-03-30T22:11:10.399Z,97645.31
2023-03-30T22:13:39.181Z,97641.77
2023-03-30T22:16:08.973Z,97641.02
2023-03-30T22:18:38.160Z,97640.84
2023-03-30T22:21:07.967Z,97635.02
2023-03-30T22:23:37.074Z,97636.27
2023-03-30T22:26:06.690Z,97633.91
2023-03-30T22:28:36.082Z,97635.42
2023-03-30T22:31:06.694Z,97631.73
2023-03-30T22:33:35.804Z,97635.27
2023-03-30T22:36:07.508Z,97629.98
2023-03-30T22:38:36.589Z,97629.34
2023-03-30T22:41:07.848Z,97631.48
2023-03-30T22:43:36.741Z,97628.06
2023-03-30T22:46:05.937Z,97622.24
2023-03-30T22:48:35.520Z,97620.77
2023-03-30T22:51:04.608Z,97616.54
2023-03-30T22:53:33.432Z,97616.08
2023-03-30T22:56:02.155Z,97606.31
2023-03-30T22:58:30.983Z,97600.14
2023-03-30T23:01:03.151Z,97601.77
2023-03-30T23:03:32.014Z,97597.66
2023-03-30T23:06:01.711Z,97592.96
2023-03-30T23:08:30.899Z,97593.47
2023-03-30T23:11:04.557Z,97587.77
2023-03-30T23:13:37.248Z,97586.17
2023-03-30T23:16:07.826Z,97583.55
2023-03-30T23:18:37.635Z,97578.90
2023-03-30T23:21:07.337Z,97578.19
2023-03-30T23:23:37.226Z,97575.77
2023-03-30T23:26:09.216Z,97571.70
2023-03-30T23:28:39.347Z,97561.38
2023-03-30T23:31:08.969Z,97553.65
2023-03-30T23:33:37.872Z,97554.41
2023-03-30T23:36:08.553Z,97551.12
2023-03-30T23:38:37.876Z,97538.20
2023-03-30T23:41:09.054Z,97542.88
2023-03-30T23:43:38.120Z,97539.93
2023-03-30T23:46:07.247Z,97533.11
2023-03-30T23:48:36.529Z,97533.64
2023-03-30T23:51:05.966Z,97531.41
2023-03-30T23:53:35.065Z,97529.02
2023-03-30T23:56:06.285Z,97527.88
2023-03-30T23:58:35.413Z,97528.63
